createdAt,value
2018-10-01T00:08:14.470Z,5.7
2018-10-01T00:28:26.378Z,5.2
2018-10-01T00:43:26.749Z,6.8
2018-10-01T01:18:38.402Z,8
2018-10-01T01:33:38.515Z,5.8
2018-10-01T01:48:54.673Z,6
2018-10-01T02:03:54.340Z,7.5
2018-10-01T02:23:55.105Z,6.1
2018-10-01T02:39:07.128Z,6.8
2018-10-01T03:09:07.453Z,5.2
2018-10-01T03:29:19.089Z,6.7
2018-10-01T03:44:19.231Z,6.8
2018-10-01T04:19:31.057Z,8.1
2018-10-01T04:34:31.062Z,7.6
2018-10-01T04:49:43.177Z,8.6
2018-10-01T05:04:42.901Z,8.4
2018-10-01T05:24:42.977Z,7.7
2018-10-01T05:54:54.700Z,9.1
2018-10-01T06:45:06.840Z,10.2
2018-10-01T07:35:22.671Z,11.5
2018-10-01T07:50:19.616Z,14.5
2018-10-01T08:05:19.753Z,15.4
2018-10-01T08:25:19.598Z,13.1
2018-10-01T08:40:33.732Z,15.7
2018-10-01T08:55:33.464Z,40.1
2018-10-01T09:15:33.482Z,22.5
2018-10-01T09:30:48.460Z,19.4
2018-10-01T09:45:48.111Z,16.2
2018-10-01T10:00:53.367Z,22.7
2018-10-01T10:36:05.400Z,26.4
2018-10-01T11:11:18.008Z,27.5
2018-10-01T11:26:17.893Z,27.6
2018-10-01T11:56:30.762Z,20.4
2018-10-01T12:16:30.588Z,16.8
2018-10-01T12:31:42.362Z,18.3
2018-10-01T12:46:42.350Z,15.7
2018-10-01T13:21:42.348Z,12.7
2018-10-01T13:36:54.723Z,9.5
2018-10-01T13:51:54.393Z,13.1
2018-10-01T14:27:06.211Z,9.9
2018-10-01T14:42:07.002Z,13.2
2018-10-01T15:17:12.462Z,14.6
2018-10-01T15:32:23.798Z,15.5
2018-10-01T15:47:23.802Z,13.2
2018-10-01T16:57:34.361Z,20
2018-10-01T17:27:46.066Z,19.3
2018-10-01T17:42:48.542Z,19.9
2018-10-01T18:02:58.279Z,21.1
2018-10-01T18:17:59.094Z,20.3
2018-10-01T18:33:11.773Z,23.1
2018-10-01T18:48:12.026Z,21.8
2018-10-01T19:08:13.174Z,23.4
2018-10-01T19:38:25.647Z,21.5
2018-10-01T19:58:25.274Z,18.8
2018-10-01T20:43:36.814Z,3.2
2018-10-01T21:03:39.329Z,4.4
2018-10-01T21:18:49.948Z,4.7
2018-10-01T21:33:49.964Z,5.3
2018-10-01T22:08:50.064Z,6.3
2018-10-01T22:24:00.796Z,4.6
2018-10-01T22:39:00.752Z,4.7
2018-10-01T22:59:01.345Z,6.4
2018-10-01T23:14:13.153Z,6.4
2018-10-01T23:29:13.152Z,5.8
2018-10-01T23:49:13.345Z,11.5
